Time;durP1;ratioP1;P1;durP2;ratioP2;P2;SDS_P1;SDS_P2;PMS_P1;PMS_P2;Temp;Humidity;BMP_temperature;BMP_pressure;BME280_temperature;BME280_humidity;BME280_pressure;Samples;Min_cycle;Max_cycle;Signal;HPM_P1;HPM_P2
2023/06/24 00:00:13;;;;;;;15.20;12.10;;;19.10;1.00;;;;;;4947073;28;20558;-76
2023/06/24 00:02:45;;;;;;;14.40;13.00;;;19.10;1.00;;;;;;4943558;28;20451;-77
2023/06/24 00:05:13;;;;;;;13.40;12.20;;;19.00;1.00;;;;;;4946751;28;20519;-75
2023/06/24 00:07:44;;;;;;;13.07;11.87;;;19.00;1.00;;;;;;4947030;28;21200;-75
2023/06/24 00:10:11;;;;;;;13.47;12.27;;;19.00;1.00;;;;;;4949892;28;20464;-76
2023/06/24 00:12:39;;;;;;;13.23;11.93;;;19.00;1.00;;;;;;4948531;28;20560;-76
2023/06/24 00:15:07;;;;;;;14.43;13.23;;;19.00;1.00;;;;;;4950256;28;20579;-76
2023/06/24 00:17:34;;;;;;;13.97;12.53;;;19.00;1.00;;;;;;4947997;28;20861;-76
2023/06/24 00:20:04;;;;;;;13.27;12.13;;;19.00;1.00;;;;;;4951827;28;20469;-75
2023/06/24 00:22:32;;;;;;;17.03;13.40;;;19.00;1.00;;;;;;4948173;28;20483;-77
2023/06/24 00:25:00;;;;;;;13.30;12.10;;;19.00;1.00;;;;;;4948960;28;20459;-76
2023/06/24 00:27:27;;;;;;;13.10;12.00;;;18.90;1.00;;;;;;4950186;28;20492;-76
2023/06/24 00:29:54;;;;;;;13.73;12.47;;;18.90;1.00;;;;;;4949432;28;20553;-76
2023/06/24 00:32:21;;;;;;;15.03;13.73;;;18.90;1.00;;;;;;4946446;28;20567;-76
2023/06/24 00:34:50;;;;;;;14.30;12.83;;;18.90;1.00;;;;;;4950716;28;20498;-76
2023/06/24 00:37:17;;;;;;;13.90;12.80;;;18.80;1.00;;;;;;4950916;28;20936;-76
2023/06/24 00:39:46;;;;;;;15.50;13.23;;;18.70;1.00;;;;;;4948286;28;20581;-76
2023/06/24 00:42:13;;;;;;;14.00;12.70;;;18.70;1.00;;;;;;4951057;28;20485;-78
2023/06/24 00:44:40;;;;;;;15.23;13.87;;;18.60;1.00;;;;;;4946130;28;20538;-77
2023/06/24 00:47:09;;;;;;;14.17;12.90;;;18.50;1.00;;;;;;4947696;28;20935;-77
2023/06/24 00:49:37;;;;;;;16.60;15.00;;;18.50;1.00;;;;;;4948039;28;21072;-77
2023/06/24 00:52:04;;;;;;;14.60;13.30;;;18.40;1.00;;;;;;4950890;28;20512;-78
2023/06/24 00:54:32;;;;;;;17.13;15.63;;;18.30;1.00;;;;;;4950663;28;20474;-77
2023/06/24 00:57:01;;;;;;;16.20;14.70;;;18.20;1.00;;;;;;4949372;28;20588;-78
2023/06/24 00:59:31;;;;;;;16.97;15.13;;;18.20;1.00;;;;;;4951019;28;20604;-77
2023/06/24 01:02:04;;;;;;;15.97;14.57;;;18.20;1.00;;;;;;4949838;28;20476;-78
2023/06/24 01:04:33;;;;;;;16.20;14.80;;;18.10;1.00;;;;;;4967409;23;20478;-75
2023/06/24 01:07:01;;;;;;;19.30;17.57;;;18.10;1.00;;;;;;4969665;28;20497;-76
2023/06/24 01:09:28;;;;;;;21.53;17.90;;;18.10;1.00;;;;;;4966557;28;20460;-75
2023/06/24 01:11:55;;;;;;;18.10;16.40;;;18.10;1.00;;;;;;4964272;28;21000;-75
2023/06/24 01:14:24;;;;;;;19.77;17.83;;;18.10;1.00;;;;;;4966436;28;20478;-75
2023/06/24 01:16:58;;;;;;;18.50;16.50;;;18.10;1.00;;;;;;4967030;28;20484;-76
2023/06/24 01:19:41;;;;;;;22.83;16.83;;;18.10;1.00;;;;;;4966335;28;20584;-75
2023/06/24 01:22:21;;;;;;;20.83;18.67;;;18.00;1.00;;;;;;4970410;28;20468;-75
2023/06/24 01:25:08;;;;;;;18.63;16.83;;;18.00;1.00;;;;;;4967654;28;20853;-76
2023/06/24 01:27:58;;;;;;;18.83;17.13;;;17.90;1.00;;;;;;4966454;28;20507;-75
2023/06/24 01:30:52;;;;;;;18.23;16.47;;;17.90;1.00;;;;;;4968704;28;20486;-74
2023/06/24 01:33:25;;;;;;;21.23;19.27;;;17.90;1.00;;;;;;4967122;28;20475;-75
2023/06/24 01:35:53;;;;;;;18.80;16.90;;;17.90;1.00;;;;;;4969284;28;20877;-76
2023/06/24 01:38:25;;;;;;;19.03;17.10;;;17.90;1.00;;;;;;4967288;28;21035;-73
2023/06/24 01:40:54;;;;;;;21.70;18.07;;;17.90;1.00;;;;;;4965190;28;20899;-75
2023/06/24 01:43:24;;;;;;;17.40;15.80;;;17.90;1.00;;;;;;4968175;28;21152;-74
2023/06/24 01:45:53;;;;;;;18.07;16.43;;;17.80;1.00;;;;;;4967395;28;20463;-75
2023/06/24 01:48:26;;;;;;;17.80;16.20;;;17.80;1.00;;;;;;4967697;28;20480;-74
2023/06/24 01:50:58;;;;;;;17.63;15.90;;;17.90;1.00;;;;;;4966895;28;20452;-75
2023/06/24 01:53:27;;;;;;;17.70;16.00;;;17.80;1.00;;;;;;4966732;28;20473;-75
2023/06/24 01:55:55;;;;;;;17.20;15.40;;;17.80;1.00;;;;;;4965229;28;20990;-75
2023/06/24 01:58:24;;;;;;;17.00;15.43;;;17.80;1.00;;;;;;4962936;28;20553;-74
2023/06/24 02:00:52;;;;;;;15.50;14.10;;;17.70;1.00;;;;;;4964359;28;20462;-75
2023/06/24 02:03:22;;;;;;;16.53;15.00;;;17.60;1.00;;;;;;4965480;28;21293;-75
2023/06/24 02:05:51;;;;;;;16.10;14.53;;;17.60;1.00;;;;;;4966837;28;20488;-75
2023/06/24 02:08:19;;;;;;;15.70;14.10;;;17.60;1.00;;;;;;4963235;28;20476;-76
2023/06/24 02:10:47;;;;;;;15.80;14.20;;;17.60;1.00;;;;;;4964228;28;20464;-74
2023/06/24 02:13:14;;;;;;;15.23;13.83;;;17.60;1.00;;;;;;4963070;28;20549;-75
2023/06/24 02:15:42;;;;;;;16.03;14.63;;;17.50;1.00;;;;;;4966625;28;20548;-74
2023/06/24 02:18:10;;;;;;;15.80;14.37;;;17.60;1.00;;;;;;4966657;28;20464;-75
2023/06/24 02:20:40;;;;;;;15.87;14.40;;;17.60;1.00;;;;;;4964908;28;20548;-75
2023/06/24 02:23:09;;;;;;;16.47;15.00;;;17.50;1.00;;;;;;4966769;28;20479;-76
2023/06/24 02:25:38;;;;;;;16.27;14.73;;;17.50;1.00;;;;;;4964342;28;20849;-77
2023/06/24 02:28:07;;;;;;;14.80;13.50;;;17.50;1.00;;;;;;4963962;28;20987;-75
2023/06/24 02:30:35;;;;;;;15.77;14.27;;;17.40;1.00;;;;;;4965473;28;20466;-74
2023/06/24 02:33:02;;;;;;;14.63;13.37;;;17.40;1.00;;;;;;4962323;28;20559;-74
2023/06/24 02:35:29;;;;;;;13.97;12.83;;;17.40;1.00;;;;;;4965356;28;20484;-77
2023/06/24 02:37:57;;;;;;;16.03;14.43;;;17.30;1.00;;;;;;4965053;28;20559;-76
2023/06/24 02:40:25;;;;;;;12.83;11.70;;;17.30;1.00;;;;;;4967238;28;20538;-75
2023/06/24 02:42:52;;;;;;;15.40;14.00;;;17.30;1.00;;;;;;4964189;28;20611;-76
2023/06/24 02:45:19;;;;;;;14.13;12.80;;;17.30;1.00;;;;;;4965432;28;20461;-76
2023/06/24 02:47:48;;;;;;;14.23;12.93;;;17.30;1.00;;;;;;4964968;28;20583;-76
2023/06/24 02:50:15;;;;;;;15.97;14.37;;;17.30;1.00;;;;;;4963949;28;20550;-76
2023/06/24 02:52:43;;;;;;;14.57;13.20;;;17.30;1.00;;;;;;4964493;28;20455;-76
2023/06/24 02:55:12;;;;;;;15.47;13.87;;;17.20;1.00;;;;;;4966561;28;20527;-75
2023/06/24 02:57:41;;;;;;;14.50;13.20;;;17.20;1.00;;;;;;4964722;28;20998;-76
2023/06/24 03:00:12;;;;;;;15.10;13.50;;;17.20;1.00;;;;;;4966110;28;20488;-76
2023/06/24 03:02:39;;;;;;;15.03;13.70;;;17.20;1.00;;;;;;4965423;28;20838;-76
2023/06/24 03:05:08;;;;;;;14.70;13.40;;;17.10;1.00;;;;;;4967586;28;20473;-76
2023/06/24 03:07:36;;;;;;;15.03;13.70;;;17.10;1.00;;;;;;4967377;28;20583;-76
2023/06/24 03:10:04;;;;;;;14.57;13.10;;;17.10;1.00;;;;;;4964761;28;20482;-75
2023/06/24 03:12:33;;;;;;;13.90;12.60;;;17.00;1.00;;;;;;4966669;28;20964;-76
2023/06/24 03:15:00;;;;;;;15.00;13.60;;;17.00;1.00;;;;;;4965382;28;20491;-76
2023/06/24 03:17:27;;;;;;;14.40;13.00;;;17.10;1.00;;;;;;4966080;28;20554;-76
2023/06/24 03:19:54;;;;;;;15.23;13.73;;;17.00;1.00;;;;;;4961939;28;20493;-76
2023/06/24 03:22:22;;;;;;;16.07;14.57;;;17.10;1.00;;;;;;4968923;28;20552;-75
2023/06/24 03:24:51;;;;;;;15.57;14.00;;;17.10;1.00;;;;;;4964605;28;20467;-76
2023/06/24 03:27:18;;;;;;;16.00;13.20;;;17.10;1.00;;;;;;4963725;28;20944;-76
2023/06/24 03:29:46;;;;;;;15.67;14.07;;;17.10;1.00;;;;;;4964548;28;21766;-76
2023/06/24 03:32:13;;;;;;;13.83;12.43;;;17.10;1.00;;;;;;4964412;28;20547;-76
2023/06/24 03:34:40;;;;;;;15.47;13.93;;;17.20;1.00;;;;;;4960499;28;20457;-75
2023/06/24 03:37:07;;;;;;;15.77;14.13;;;17.20;1.00;;;;;;4967055;28;21062;-75
2023/06/24 03:39:34;;;;;;;14.00;12.83;;;17.20;1.00;;;;;;4965782;28;20444;-76
2023/06/24 03:42:01;;;;;;;14.07;12.87;;;17.30;1.00;;;;;;4967999;28;20474;-75
2023/06/24 03:44:28;;;;;;;13.90;12.37;;;17.20;1.00;;;;;;4965236;28;20460;-74
2023/06/24 03:46:56;;;;;;;15.67;13.17;;;17.20;1.00;;;;;;4959771;28;20568;-75
2023/06/24 03:49:23;;;;;;;13.60;12.40;;;17.20;1.00;;;;;;4964523;28;20472;-76
2023/06/24 03:51:50;;;;;;;13.30;11.93;;;17.10;1.00;;;;;;4966542;28;20463;-75
2023/06/24 03:54:17;;;;;;;14.53;13.13;;;17.10;1.00;;;;;;4966280;28;20569;-75
2023/06/24 03:56:45;;;;;;;13.97;12.70;;;17.00;1.00;;;;;;4964167;28;20468;-76
2023/06/24 03:59:12;;;;;;;14.13;12.83;;;17.00;1.00;;;;;;4965287;28;20489;-74
2023/06/24 04:01:39;;;;;;;14.90;13.60;;;17.00;1.00;;;;;;4962241;28;20991;-74
2023/06/24 04:04:08;;;;;;;13.10;11.80;;;17.00;1.00;;;;;;4953637;28;20483;-74
2023/06/24 04:06:34;;;;;;;14.03;12.77;;;16.90;1.00;;;;;;4965129;28;20492;-75
2023/06/24 04:09:02;;;;;;;13.60;12.37;;;16.90;1.00;;;;;;4965087;28;20481;-75
2023/06/24 04:11:29;;;;;;;14.67;12.83;;;16.90;1.00;;;;;;4961865;28;20535;-75
2023/06/24 04:13:56;;;;;;;17.13;13.20;;;16.90;1.00;;;;;;4965869;28;20491;-75
2023/06/24 04:16:23;;;;;;;13.83;12.53;;;16.80;1.00;;;;;;4962163;28;20490;-74
2023/06/24 04:18:50;;;;;;;18.60;13.67;;;16.80;1.00;;;;;;4965297;28;20575;-75
2023/06/24 04:21:18;;;;;;;14.23;12.37;;;16.80;1.00;;;;;;4966382;28;20464;-75
2023/06/24 04:23:45;;;;;;;14.63;13.13;;;16.90;1.00;;;;;;4966783;28;20430;-76
2023/06/24 04:26:12;;;;;;;13.90;12.70;;;16.80;1.00;;;;;;4965359;28;20566;-75
2023/06/24 04:28:39;;;;;;;15.70;14.13;;;16.80;1.00;;;;;;4966479;28;20662;-76
2023/06/24 04:31:07;;;;;;;14.00;12.70;;;16.80;1.00;;;;;;4966978;28;20468;-75
2023/06/24 04:33:34;;;;;;;13.87;12.67;;;16.80;1.00;;;;;;4965283;28;20498;-75
2023/06/24 04:36:01;;;;;;;14.40;13.00;;;16.70;1.00;;;;;;4965953;28;20484;-75
2023/06/24 04:38:29;;;;;;;13.23;11.87;;;16.70;1.00;;;;;;4965831;28;20478;-75
2023/06/24 04:40:59;;;;;;;15.57;14.07;;;16.60;1.00;;;;;;4967330;28;20468;-76
2023/06/24 04:43:27;;;;;;;14.67;13.17;;;16.70;1.00;;;;;;4963503;28;20464;-75
2023/06/24 04:45:56;;;;;;;15.23;13.77;;;16.70;1.00;;;;;;4964868;28;20483;-75
2023/06/24 04:48:24;;;;;;;17.20;15.40;;;16.60;1.00;;;;;;4964361;28;20475;-76
2023/06/24 04:50:53;;;;;;;15.67;14.00;;;16.70;1.00;;;;;;4966521;28;20467;-76
2023/06/24 04:53:20;;;;;;;12.87;11.77;;;16.70;1.00;;;;;;4964846;28;20472;-75
2023/06/24 04:55:51;;;;;;;15.87;14.33;;;16.80;1.00;;;;;;4967571;28;20559;-77
2023/06/24 04:58:18;;;;;;;14.70;13.20;;;16.90;1.00;;;;;;4968336;28;20460;-76
2023/06/24 05:00:45;;;;;;;15.90;14.30;;;16.90;1.00;;;;;;4969805;28;21056;-76
2023/06/24 05:03:12;;;;;;;14.57;13.17;;;17.00;1.00;;;;;;4967433;28;20527;-76
2023/06/24 05:05:39;;;;;;;14.93;13.53;;;17.10;1.00;;;;;;4969622;28;20444;-76
2023/06/24 05:08:06;;;;;;;14.50;13.10;;;17.20;1.00;;;;;;4968781;28;20456;-76
2023/06/24 05:10:33;;;;;;;13.30;11.90;;;17.40;1.00;;;;;;4965377;28;20564;-75
2023/06/24 05:13:01;;;;;;;15.13;12.00;;;17.40;1.00;;;;;;4955501;28;20469;-75
2023/06/24 05:15:28;;;;;;;13.67;12.37;;;17.40;1.00;;;;;;4962354;28;20575;-75
2023/06/24 05:17:56;;;;;;;14.50;13.00;;;17.50;1.00;;;;;;4968454;28;20473;-75
2023/06/24 05:20:23;;;;;;;14.80;13.40;;;17.60;1.00;;;;;;4965400;28;20527;-74
2023/06/24 05:22:53;;;;;;;13.20;11.90;;;17.60;1.00;;;;;;4969310;28;20477;-75
2023/06/24 05:25:20;;;;;;;12.73;11.50;;;17.60;1.00;;;;;;4968866;28;20485;-73
2023/06/24 05:27:47;;;;;;;14.40;12.90;;;17.60;1.00;;;;;;4967479;28;20480;-75
2023/06/24 05:30:16;;;;;;;11.70;10.60;;;17.60;1.00;;;;;;4966156;28;20496;-76
2023/06/24 05:32:42;;;;;;;12.70;11.50;;;17.70;1.00;;;;;;4967643;28;20813;-75
2023/06/24 05:35:09;;;;;;;11.83;10.70;;;17.80;1.00;;;;;;4970361;28;20448;-76
2023/06/24 05:37:36;;;;;;;15.27;11.70;;;17.80;1.00;;;;;;4963956;28;20670;-74
2023/06/24 05:40:05;;;;;;;13.10;11.40;;;17.90;1.00;;;;;;4963178;28;22661;-74
2023/06/24 05:42:32;;;;;;;13.20;11.90;;;18.00;1.00;;;;;;4968459;28;20466;-75
2023/06/24 05:44:59;;;;;;;14.07;12.63;;;18.10;1.00;;;;;;4969998;28;20969;-76
2023/06/24 05:47:27;;;;;;;13.20;11.87;;;18.10;1.00;;;;;;4968794;28;20470;-76
2023/06/24 05:49:54;;;;;;;12.43;11.23;;;18.20;1.00;;;;;;4969123;28;20469;-76
2023/06/24 05:52:21;;;;;;;12.47;10.83;;;18.20;1.00;;;;;;4968499;28;20462;-75
2023/06/24 05:54:48;;;;;;;13.17;11.83;;;18.30;1.00;;;;;;4967453;28;20444;-75
2023/06/24 05:57:15;;;;;;;12.77;11.23;;;18.30;1.00;;;;;;4966192;28;20465;-75
2023/06/24 05:59:42;;;;;;;12.33;10.90;;;18.30;1.00;;;;;;4968236;28;20470;-76
2023/06/24 06:02:09;;;;;;;12.40;11.30;;;18.30;1.00;;;;;;4961520;28;20473;-75
2023/06/24 06:04:39;;;;;;;13.70;10.90;;;18.40;1.00;;;;;;4964278;28;20485;-75
2023/06/24 06:07:06;;;;;;;17.60;11.57;;;18.40;1.00;;;;;;4966531;28;20506;-75
2023/06/24 06:09:33;;;;;;;11.70;10.60;;;18.50;1.00;;;;;;4966513;28;21375;-75
2023/06/24 06:12:00;;;;;;;11.90;10.73;;;18.50;1.00;;;;;;4963025;28;20482;-73
2023/06/24 06:14:27;;;;;;;12.90;11.73;;;18.60;1.00;;;;;;4969053;28;20937;-74
2023/06/24 06:16:54;;;;;;;12.70;11.07;;;18.70;1.00;;;;;;4963618;28;21022;-75
2023/06/24 06:19:21;;;;;;;11.73;10.63;;;18.70;1.00;;;;;;4962806;28;20547;-73
2023/06/24 06:21:50;;;;;;;14.03;10.50;;;18.80;1.00;;;;;;4965026;28;20507;-75
2023/06/24 06:24:17;;;;;;;12.57;11.27;;;18.90;1.00;;;;;;4966871;28;20482;-74
2023/06/24 06:26:44;;;;;;;13.07;11.47;;;19.00;1.00;;;;;;4958873;28;20550;-74
2023/06/24 06:29:11;;;;;;;12.20;11.00;;;19.10;1.00;;;;;;4962574;28;20514;-75
2023/06/24 06:31:39;;;;;;;11.30;9.80;;;19.10;1.00;;;;;;4967049;28;20485;-75
2023/06/24 06:34:06;;;;;;;10.70;9.60;;;19.20;1.00;;;;;;4963782;28;21080;-74
2023/06/24 06:36:33;;;;;;;11.57;9.93;;;19.30;1.00;;;;;;4964496;28;20550;-74
2023/06/24 06:39:01;;;;;;;9.77;8.77;;;19.40;1.00;;;;;;4964403;28;20493;-75
2023/06/24 06:41:28;;;;;;;11.70;10.60;;;19.40;1.00;;;;;;4964042;28;20963;-75
2023/06/24 06:43:55;;;;;;;10.43;9.40;;;19.50;1.00;;;;;;4960833;28;20564;-76
2023/06/24 06:46:23;;;;;;;13.20;10.30;;;19.50;1.00;;;;;;4953131;28;20463;-75
2023/06/24 06:48:50;;;;;;;12.13;9.67;;;19.50;1.00;;;;;;4968543;28;20471;-75
2023/06/24 06:51:18;;;;;;;10.80;9.37;;;19.60;1.00;;;;;;4966722;28;20477;-75
2023/06/24 06:53:45;;;;;;;10.60;9.50;;;19.80;1.00;;;;;;4964271;28;20474;-76
2023/06/24 06:56:19;;;;;;;11.50;9.00;;;19.90;1.00;;;;;;4967836;28;20464;-75
2023/06/24 06:58:46;;;;;;;11.90;9.90;;;20.10;1.00;;;;;;4961297;28;20542;-76
2023/06/24 07:01:15;;;;;;;10.87;9.70;;;20.20;1.00;;;;;;4964677;28;20518;-77
2023/06/24 07:03:42;;;;;;;11.90;10.77;;;20.20;1.00;;;;;;4964294;28;20474;-75
2023/06/24 07:06:09;;;;;;;12.90;10.00;;;20.20;1.00;;;;;;4965190;28;20543;-76
2023/06/24 07:08:36;;;;;;;10.87;9.87;;;20.10;1.00;;;;;;4963051;28;20481;-74
2023/06/24 07:11:04;;;;;;;11.27;9.90;;;20.20;1.00;;;;;;4960307;28;20472;-74
2023/06/24 07:13:33;;;;;;;11.20;10.20;;;20.20;1.00;;;;;;4961865;28;20468;-75
2023/06/24 07:16:00;;;;;;;9.97;9.10;;;20.20;1.00;;;;;;4958555;28;20992;-75
2023/06/24 07:18:30;;;;;;;11.40;9.47;;;20.20;1.00;;;;;;4961733;28;20495;-76
2023/06/24 07:20:57;;;;;;;11.20;10.10;;;20.20;1.00;;;;;;4960735;28;21183;-75
2023/06/24 07:23:24;;;;;;;11.77;9.50;;;20.20;1.00;;;;;;4963565;28;20501;-75
2023/06/24 07:25:59;;;;;;;10.43;9.43;;;20.30;1.00;;;;;;4967655;28;20453;-76
2023/06/24 07:28:25;;;;;;;10.70;9.30;;;20.50;1.00;;;;;;4963655;28;20460;-77
2023/06/24 07:30:57;;;;;;;9.97;9.07;;;20.70;1.00;;;;;;4967793;28;20462;-75
2023/06/24 07:33:24;;;;;;;10.00;9.10;;;20.60;1.00;;;;;;4963611;28;20480;-76
2023/06/24 07:35:51;;;;;;;8.97;8.13;;;20.50;1.00;;;;;;4959651;28;20960;-75
2023/06/24 07:38:18;;;;;;;11.83;8.30;;;20.40;1.00;;;;;;4959115;28;20472;-75
2023/06/24 07:40:45;;;;;;;10.10;9.10;;;20.50;1.00;;;;;;4963679;28;20461;-75
2023/06/24 07:43:12;;;;;;;9.53;8.73;;;20.60;1.00;;;;;;4964040;28;20483;-76
2023/06/24 07:45:39;;;;;;;9.00;7.57;;;20.90;1.00;;;;;;4963729;28;20510;-74
2023/06/24 07:48:08;;;;;;;8.47;7.57;;;21.20;1.00;;;;;;4964881;28;20554;-75
2023/06/24 07:50:35;;;;;;;8.27;7.50;;;21.00;1.00;;;;;;4965486;28;20903;-76
2023/06/24 07:53:03;;;;;;;8.77;7.73;;;20.80;1.00;;;;;;4965556;28;20534;-74
2023/06/24 07:55:30;;;;;;;9.97;9.00;;;20.70;1.00;;;;;;4963967;28;20607;-74
2023/06/24 07:57:58;;;;;;;7.33;6.73;;;20.70;1.00;;;;;;4966546;28;20564;-75
2023/06/24 08:00:25;;;;;;;8.00;7.23;;;20.80;1.00;;;;;;4961081;28;20458;-75
2023/06/24 08:02:53;;;;;;;6.80;6.20;;;20.90;1.00;;;;;;4962509;28;20464;-75
2023/06/24 08:05:21;;;;;;;7.30;6.60;;;21.00;1.00;;;;;;4959098;28;20516;-72
2023/06/24 08:07:49;;;;;;;6.73;6.03;;;21.00;1.00;;;;;;4962210;28;20550;-76
2023/06/24 08:10:16;;;;;;;6.73;5.93;;;21.10;1.00;;;;;;4962541;28;20545;-76
2023/06/24 08:12:43;;;;;;;7.47;6.77;;;21.30;1.00;;;;;;4963450;28;20473;-76
2023/06/24 08:15:10;;;;;;;7.70;7.10;;;21.60;1.00;;;;;;4964517;28;20479;-76
2023/06/24 08:17:37;;;;;;;6.67;6.17;;;21.90;1.00;;;;;;4964691;28;20511;-76
2023/06/24 08:20:05;;;;;;;6.97;6.40;;;22.10;1.00;;;;;;4963982;28;20984;-76
2023/06/24 08:22:34;;;;;;;8.27;6.73;;;22.10;1.00;;;;;;4967296;28;20924;-76
2023/06/24 08:25:01;;;;;;;6.70;6.10;;;22.10;1.00;;;;;;4948464;28;20446;-77
2023/06/24 08:27:29;;;;;;;6.10;5.60;;;21.80;1.00;;;;;;4965245;28;20481;-77
2023/06/24 08:32:42;;;;;;;6.60;6.10;;;21.60;1.00;;;;;;4969266;28;20958;-77
2023/06/24 08:35:10;;;;;;;6.63;6.03;;;21.70;1.00;;;;;;4970056;28;21016;-76
2023/06/24 08:37:38;;;;;;;7.20;6.70;;;21.70;1.00;;;;;;4968034;28;21018;-77
2023/06/24 08:40:06;;;;;;;6.20;5.60;;;21.90;1.00;;;;;;4969661;28;20841;-78
2023/06/24 08:42:33;;;;;;;8.07;6.83;;;22.00;1.00;;;;;;4965341;28;20490;-77
2023/06/24 08:45:00;;;;;;;6.73;6.23;;;22.30;1.00;;;;;;4970932;28;20551;-75
2023/06/24 08:50:53;;;;;;;6.70;6.20;;;22.80;1.00;;;;;;4968410;28;20858;-78
2023/06/24 08:53:23;;;;;;;7.93;7.13;;;22.90;1.00;;;;;;4967810;28;20490;-75
2023/06/24 08:55:53;;;;;;;7.10;6.50;;;23.00;1.00;;;;;;4970785;28;20444;-76
2023/06/24 08:58:20;;;;;;;6.33;5.83;;;23.10;1.00;;;;;;4969124;28;20471;-76
2023/06/24 09:00:48;;;;;;;5.80;5.40;;;23.00;1.00;;;;;;4970272;28;20464;-78
2023/06/24 09:03:15;;;;;;;6.13;5.73;;;23.10;1.00;;;;;;4967346;28;20547;-77
2023/06/24 09:05:44;;;;;;;7.73;7.03;;;23.10;1.00;;;;;;4956224;28;20460;-77
2023/06/24 09:08:11;;;;;;;8.43;7.73;;;23.20;1.00;;;;;;4963293;28;20495;-77
2023/06/24 09:10:39;;;;;;;7.60;6.90;;;23.30;1.00;;;;;;4967811;28;20463;-76
2023/06/24 09:13:07;;;;;;;12.23;6.90;;;23.40;1.00;;;;;;4968416;28;20553;-79
2023/06/24 09:15:35;;;;;;;6.93;6.33;;;23.70;1.00;;;;;;4965380;28;20563;-77
2023/06/24 09:18:03;;;;;;;5.73;5.27;;;23.80;1.00;;;;;;4967158;28;21015;-76
2023/06/24 09:20:31;;;;;;;7.07;6.40;;;23.70;1.00;;;;;;4963494;28;20556;-76
2023/06/24 09:23:03;;;;;;;5.60;5.20;;;23.50;1.00;;;;;;4970389;28;20532;-75
2023/06/24 09:25:30;;;;;;;6.70;6.10;;;23.40;1.00;;;;;;4967048;28;20540;-76
2023/06/24 09:28:02;;;;;;;6.43;5.77;;;23.50;1.00;;;;;;4967136;28;20468;-76
2023/06/24 09:30:29;;;;;;;6.20;5.60;;;23.70;1.00;;;;;;4971305;28;20961;-76
2023/06/24 09:32:57;;;;;;;5.83;5.43;;;23.70;1.00;;;;;;4970403;28;20563;-77
2023/06/24 09:35:25;;;;;;;5.97;5.37;;;23.70;1.00;;;;;;4965342;28;20483;-76
2023/06/24 09:37:53;;;;;;;6.93;5.47;;;23.90;1.00;;;;;;4971534;28;20502;-76
2023/06/24 09:40:20;;;;;;;5.33;4.83;;;24.00;1.00;;;;;;4969539;28;20560;-74
2023/06/24 09:42:52;;;;;;;5.53;5.10;;;24.50;1.00;;;;;;4967016;28;20478;-76
2023/06/24 09:45:26;;;;;;;6.73;6.13;;;25.70;1.00;;;;;;4969803;28;20524;-75
2023/06/24 09:47:53;;;;;;;6.60;6.00;;;27.30;1.00;;;;;;4941864;28;20517;-76
2023/06/24 09:50:21;;;;;;;5.90;5.40;;;28.70;1.00;;;;;;4968010;28;20593;-75
2023/06/24 09:52:50;;;;;;;5.00;4.70;;;29.90;1.00;;;;;;4968634;28;20462;-75
2023/06/24 09:55:19;;;;;;;7.00;6.40;;;30.70;1.00;;;;;;4967720;28;20849;-75
2023/06/24 09:57:47;;;;;;;6.03;5.57;;;31.50;1.00;;;;;;4967140;28;20626;-75
2023/06/24 10:00:17;;;;;;;5.40;4.90;;;32.20;1.00;;;;;;4970079;28;20511;-74
2023/06/24 10:02:46;;;;;;;4.40;4.10;;;32.70;1.00;;;;;;4965836;28;20570;-75
2023/06/24 10:05:14;;;;;;;5.90;5.30;;;33.00;1.00;;;;;;4931727;28;1170780;-76
2023/06/24 10:07:42;;;;;;;5.50;5.10;;;33.30;1.00;;;;;;4968614;28;20236;-75
2023/06/24 10:10:10;;;;;;;5.30;4.90;;;32.90;1.00;;;;;;4970337;28;20503;-76
2023/06/24 10:12:37;;;;;;;6.67;6.17;;;33.40;1.00;;;;;;4964857;28;20514;-76
2023/06/24 10:15:06;;;;;;;5.50;4.90;;;34.00;1.00;;;;;;4971730;28;20570;-77
2023/06/24 10:17:33;;;;;;;4.80;4.47;;;34.50;1.00;;;;;;4969403;28;20483;-75
2023/06/24 10:20:06;;;;;;;4.73;4.43;;;34.20;1.00;;;;;;4971447;28;20476;-76
2023/06/24 10:22:33;;;;;;;5.93;5.40;;;34.40;1.00;;;;;;4965825;28;20480;-75
2023/06/24 10:25:07;;;;;;;5.13;4.83;;;34.30;1.00;;;;;;4967874;28;21401;-76
2023/06/24 10:27:40;;;;;;;4.53;4.23;;;34.20;1.00;;;;;;4968001;28;20563;-76
2023/06/24 10:30:08;;;;;;;5.47;5.07;;;34.30;1.00;;;;;;4970264;28;21376;-76
2023/06/24 10:32:42;;;;;;;4.53;4.13;;;34.30;1.00;;;;;;4964032;28;20542;-77
2023/06/24 10:35:24;;;;;;;4.70;4.37;;;34.90;1.00;;;;;;4968538;28;20518;-75
2023/06/24 10:37:59;;;;;;;4.73;4.33;;;34.90;1.00;;;;;;4968828;28;20458;-77
2023/06/24 10:40:37;;;;;;;4.40;4.03;;;35.40;1.00;;;;;;4961742;28;20916;-75
2023/06/24 10:43:25;;;;;;;4.97;4.20;;;35.80;1.00;;;;;;4964143;28;20555;-75
2023/06/24 10:45:53;;;;;;;4.33;4.03;;;35.90;1.00;;;;;;4968444;28;20551;-75
2023/06/24 10:48:22;;;;;;;4.20;3.90;;;36.20;1.00;;;;;;4963258;28;20551;-76
2023/06/24 10:50:50;;;;;;;4.77;4.37;;;36.60;1.00;;;;;;4960468;28;20523;-76
2023/06/24 10:53:19;;;;;;;4.73;4.20;;;37.10;1.00;;;;;;4961312;28;20487;-75
2023/06/24 10:55:47;;;;;;;8.13;4.57;;;37.20;1.00;;;;;;4963779;28;21559;-75
2023/06/24 10:58:15;;;;;;;4.77;4.47;;;37.00;1.00;;;;;;4962549;28;20555;-74
2023/06/24 11:00:45;;;;;;;5.40;5.03;;;37.00;1.00;;;;;;4961321;28;20539;-74
2023/06/24 11:03:13;;;;;;;5.30;4.80;;;37.00;1.00;;;;;;4958197;28;20582;-75
2023/06/24 11:05:42;;;;;;;4.47;4.17;;;37.10;1.00;;;;;;4963397;28;20582;-74
2023/06/24 11:08:11;;;;;;;5.30;4.93;;;37.00;1.00;;;;;;4964066;28;20466;-74
2023/06/24 11:10:45;;;;;;;4.13;3.90;;;37.40;1.00;;;;;;4964330;28;20845;-75
2023/06/24 11:13:12;;;;;;;4.90;4.50;;;37.30;1.00;;;;;;4959938;28;20480;-75
2023/06/24 11:15:41;;;;;;;4.93;4.53;;;37.60;1.00;;;;;;4964228;28;21122;-74
2023/06/24 11:18:10;;;;;;;4.40;4.00;;;38.00;1.00;;;;;;4961333;28;20495;-75
2023/06/24 11:20:38;;;;;;;6.07;4.27;;;38.30;1.00;;;;;;4958921;28;20471;-75
2023/06/24 11:23:10;;;;;;;4.50;4.20;;;38.30;1.00;;;;;;4965578;28;20479;-78
2023/06/24 11:25:41;;;;;;;6.10;4.73;;;38.80;1.00;;;;;;4960506;28;20521;-76
2023/06/24 11:28:16;;;;;;;5.03;4.63;;;38.90;1.00;;;;;;4961103;28;20954;-76
2023/06/24 11:30:43;;;;;;;4.17;3.77;;;38.70;1.00;;;;;;4959125;28;20467;-76
2023/06/24 11:33:10;;;;;;;4.90;4.30;;;38.70;1.00;;;;;;4960351;28;20480;-77
2023/06/24 11:35:37;;;;;;;4.93;4.63;;;39.00;1.00;;;;;;4957377;28;20523;-76
2023/06/24 11:38:04;;;;;;;6.07;5.57;;;39.30;1.00;;;;;;4957563;28;20494;-76
2023/06/24 11:40:34;;;;;;;4.83;4.50;;;39.50;1.00;;;;;;4959303;28;20472;-76
2023/06/24 11:43:02;;;;;;;5.03;4.73;;;39.90;1.00;;;;;;4958949;28;20479;-75
2023/06/24 11:45:29;;;;;;;5.90;5.40;;;39.80;1.00;;;;;;4961454;28;20472;-76
2023/06/24 11:48:04;;;;;;;5.00;4.60;;;40.00;1.00;;;;;;4959558;28;20503;-75
2023/06/24 11:50:31;;;;;;;3.90;3.70;;;40.00;1.00;;;;;;4960844;28;20480;-75
2023/06/24 11:52:59;;;;;;;4.50;4.20;;;39.90;1.00;;;;;;4958331;28;20538;-75
2023/06/24 11:55:27;;;;;;;5.03;4.63;;;39.90;1.00;;;;;;4960976;28;20494;-75
2023/06/24 11:57:58;;;;;;;5.37;4.97;;;39.80;1.00;;;;;;4957944;28;20520;-75
2023/06/24 12:00:27;;;;;;;4.80;4.37;;;40.20;1.00;;;;;;4959221;28;21698;-76
2023/06/24 12:02:55;;;;;;;4.50;4.20;;;40.50;1.00;;;;;;4965063;28;20490;-76
2023/06/24 12:05:28;;;;;;;6.07;4.90;;;40.40;1.00;;;;;;4964167;28;20929;-76
2023/06/24 12:07:59;;;;;;;4.80;4.50;;;40.50;1.00;;;;;;4965601;28;20467;-76
2023/06/24 12:10:27;;;;;;;5.10;4.70;;;40.50;1.00;;;;;;4965262;28;20464;-77
2023/06/24 12:12:54;;;;;;;5.03;4.63;;;40.70;1.00;;;;;;4961008;28;20534;-78
2023/06/24 12:15:22;;;;;;;4.93;4.53;;;41.20;1.00;;;;;;4962111;28;20534;-73
2023/06/24 12:17:49;;;;;;;5.13;4.73;;;41.20;1.00;;;;;;4966059;28;20464;-77
2023/06/24 12:20:17;;;;;;;5.60;5.20;;;40.60;1.00;;;;;;4962848;28;20962;-78
2023/06/24 12:22:45;;;;;;;4.33;4.03;;;40.60;1.00;;;;;;4960889;28;20483;-77
2023/06/24 12:25:12;;;;;;;4.97;4.47;;;40.90;1.00;;;;;;4972288;28;20473;-77
2023/06/24 12:27:40;;;;;;;4.93;4.60;;;41.30;1.00;;;;;;4972161;28;20593;-78
2023/06/24 12:30:08;;;;;;;4.50;4.17;;;41.60;1.00;;;;;;4969656;28;20932;-78
2023/06/24 12:32:37;;;;;;;5.87;5.37;;;41.50;1.00;;;;;;4968581;28;20479;-77
2023/06/24 12:35:04;;;;;;;4.43;4.10;;;41.20;1.00;;;;;;4970547;28;20550;-77
2023/06/24 12:37:32;;;;;;;4.80;4.40;;;41.40;1.00;;;;;;4969755;28;20458;-77
2023/06/24 12:40:01;;;;;;;5.53;4.70;;;41.80;1.00;;;;;;4968974;28;20469;-77
2023/06/24 12:42:31;;;;;;;5.00;4.60;;;41.90;1.00;;;;;;4969412;28;20475;-78
2023/06/24 12:44:58;;;;;;;6.20;4.93;;;42.10;1.00;;;;;;4967264;28;20882;-77
2023/06/24 12:47:25;;;;;;;4.00;3.80;;;42.10;1.00;;;;;;4970440;28;20534;-76
2023/06/24 12:49:54;;;;;;;5.60;4.80;;;42.20;1.00;;;;;;4969150;28;20542;-77
2023/06/24 12:52:21;;;;;;;9.43;8.60;;;42.20;1.00;;;;;;4966121;28;20468;-76
2023/06/24 12:54:48;;;;;;;5.53;4.30;;;41.60;1.00;;;;;;4969662;28;20467;-77
2023/06/24 12:57:15;;;;;;;12.47;9.03;;;41.40;1.00;;;;;;4969635;28;20485;-77